Time;durP1;ratioP1;P1;durP2;ratioP2;P2;SDS_P1;SDS_P2;PMS_P1;PMS_P2;Temp;Humidity;BMP_temperature;BMP_pressure;BME280_temperature;BME280_humidity;BME280_pressure;Samples;Min_cycle;Max_cycle;Signal;HPM_P1;HPM_P2
2022/12/03 00:02:03;;;;;;;8.00;4.00;;;103.30;2227.20;;;;;;5012402;28;19917;-81
2022/12/03 00:04:28;;;;;;;;;;;103.10;2227.20;;;;;;5005459;28;20558;-81
2022/12/03 00:06:54;;;;;;;11.80;4.95;;;103.00;2227.20;;;;;;5006028;28;19912;-82
2022/12/03 00:09:19;;;;;;;;;;;103.10;2227.20;;;;;;5006834;28;20025;-82
2022/12/03 00:11:45;;;;;;;9.70;4.82;;;103.10;2227.20;;;;;;5005058;28;19904;-81
2022/12/03 00:14:11;;;;;;;;;;;103.20;2227.20;;;;;;5015425;28;20151;-81
2022/12/03 00:16:36;;;;;;;10.52;4.63;;;103.20;2227.20;;;;;;5012416;28;19910;-81
2022/12/03 00:19:02;;;;;;;;;;;103.20;2227.20;;;;;;5008852;28;20499;-82
2022/12/03 00:21:28;;;;;;;8.68;4.13;;;103.30;2227.20;;;;;;5031970;28;19913;-81
2022/12/03 00:23:53;;;;;;;;;;;103.30;2227.20;;;;;;5032135;28;20037;-78
2022/12/03 00:26:19;;;;;;;7.45;4.22;;;103.30;2227.20;;;;;;5028850;28;19905;-79
2022/12/03 00:28:45;;;;;;;;;;;103.30;2227.20;;;;;;5004844;28;20099;-78
2022/12/03 00:31:10;;;;;;;12.70;8.02;;;128.00;2252.80;;;;;;5014115;28;20012;-81
2022/12/03 00:33:36;;;;;;;;;;;128.00;2252.80;;;;;;5012639;28;20385;-77
2022/12/03 00:36:01;;;;;;;10.57;4.80;;;103.30;2227.20;;;;;;5027723;28;19913;-78
2022/12/03 00:38:27;;;;;;;;;;;103.20;2227.20;;;;;;5016609;28;20402;-78
2022/12/03 00:40:53;;;;;;;10.48;4.68;;;103.20;2227.20;;;;;;5007887;28;19913;-78
2022/12/03 00:43:18;;;;;;;;;;;103.10;2227.20;;;;;;5012531;28;20032;-81
2022/12/03 00:45:44;;;;;;;15.65;5.32;;;103.00;2227.20;;;;;;5019827;28;19905;-79
2022/12/03 00:48:10;;;;;;;;;;;102.90;2227.20;;;;;;5003159;28;20030;-82
2022/12/03 00:50:35;;;;;;;9.98;4.70;;;102.90;2227.20;;;;;;5027017;28;20269;-79
2022/12/03 00:53:01;;;;;;;;;;;102.90;2227.20;;;;;;5004235;28;20500;-81
2022/12/03 00:55:27;;;;;;;8.73;4.85;;;102.90;2227.20;;;;;;5001059;28;19906;-81
2022/12/03 00:57:52;;;;;;;;;;;103.00;2227.20;;;;;;5009335;28;20017;-81
2022/12/03 01:00:23;;;;;;;9.77;4.75;;;102.90;2227.20;;;;;;5002822;28;20389;-82
2022/12/03 01:02:50;;;;;;;9.50;4.90;;;102.80;2227.20;;;;;;5024061;28;20038;-81
2022/12/03 01:05:16;;;;;;;10.43;4.90;;;102.70;2227.20;;;;;;5003609;28;20173;-80
2022/12/03 01:07:42;;;;;;;;;;;102.70;2227.20;;;;;;5028641;28;20029;-80
2022/12/03 01:10:07;;;;;;;9.00;4.78;;;102.70;2227.20;;;;;;5025017;28;20000;-81
2022/12/03 01:12:33;;;;;;;;;;;102.70;2227.20;;;;;;5001334;28;20030;-82
2022/12/03 01:14:59;;;;;;;10.57;4.88;;;102.70;2227.20;;;;;;5003366;28;19905;-81
2022/12/03 01:17:25;;;;;;;;;;;102.60;2227.20;;;;;;5015122;28;20448;-82
2022/12/03 01:19:51;;;;;;;7.03;4.35;;;102.60;2227.20;;;;;;5002406;28;19912;-82
2022/12/03 01:22:17;;;;;;;8.88;4.90;;;102.50;2227.20;;;;;;5005140;28;20033;-81
2022/12/03 01:24:43;;;;;;;;;;;102.50;2227.20;;;;;;5006383;28;20041;-78
2022/12/03 01:27:08;;;;;;;7.22;4.38;;;102.40;2227.20;;;;;;5008026;28;19911;-76
2022/12/03 01:29:34;;;;;;;;;;;77.70;2227.20;;;;;;5010233;28;20045;-80
2022/12/03 01:32:18;;;;;;;7.75;4.53;;;102.40;2227.20;;;;;;5011032;28;19916;-78
2022/12/03 01:34:51;;;;;;;10.95;4.63;;;77.70;2227.20;;;;;;5004240;28;20033;-78
2022/12/03 01:37:18;;;;;;;11.65;4.93;;;102.40;2227.20;;;;;;5001479;28;20107;-80
2022/12/03 01:39:44;;;;;;;9.00;5.40;;;77.70;2227.20;;;;;;5008474;28;20032;-81
2022/12/03 01:42:27;;;;;;;;;;;77.70;2227.20;;;;;;5000145;28;20029;-81
2022/12/03 01:44:56;;;;;;;10.00;5.40;;;77.70;2227.20;;;;;;5003934;28;20431;-81
2022/12/03 01:47:33;;;;;;;10.13;5.28;;;77.70;2227.20;;;;;;5003792;28;20060;-81
2022/12/03 01:50:14;;;;;;;8.75;5.05;;;77.60;2227.20;;;;;;5001951;28;20030;-83
2022/12/03 01:52:40;;;;;;;10.05;5.53;;;77.70;2227.20;;;;;;5010939;28;20045;-81
2022/12/03 01:55:10;;;;;;;;;;;77.70;2227.20;;;;;;5009491;28;20022;-82
2022/12/03 01:57:46;;;;;;;8.77;5.55;;;102.40;2227.20;;;;;;5008412;28;19948;-78
2022/12/03 02:00:19;;;;;;;6.40;4.07;;;102.40;2227.20;;;;;;5004445;28;20148;-80
2022/12/03 02:03:06;;;;;;;12.73;5.82;;;102.40;2227.20;;;;;;5005903;28;20052;-78
2022/12/03 02:05:32;;;;;;;12.05;5.68;;;102.40;2227.20;;;;;;5011605;28;20402;-78
2022/12/03 02:07:59;;;;;;;15.77;6.05;;;102.50;2227.20;;;;;;5023204;28;20502;-81
2022/12/03 02:10:34;;;;;;;9.52;5.15;;;102.40;2227.20;;;;;;5008111;28;20030;-78
2022/12/03 02:13:05;;;;;;;10.93;6.25;;;102.40;2227.20;;;;;;5004557;28;20056;-79
2022/12/03 02:15:31;;;;;;;9.95;6.43;;;102.50;2227.20;;;;;;5013765;28;20025;-78
2022/12/03 02:17:56;;;;;;;;;;;102.40;2227.20;;;;;;5007397;28;20022;-81
2022/12/03 02:20:22;;;;;;;10.27;5.78;;;102.40;2227.20;;;;;;5008965;28;20027;-81
2022/12/03 02:22:54;;;;;;;;;;;77.70;2227.20;;;;;;5005887;28;20126;-81
2022/12/03 02:25:30;;;;;;;10.93;6.00;;;77.70;2227.20;;;;;;5026029;28;19980;-81
2022/12/03 02:27:57;;;;;;;;;;;102.40;2227.20;;;;;;5015915;28;20017;-81
2022/12/03 02:30:25;;;;;;;11.18;5.80;;;102.50;2227.20;;;;;;5006421;28;20273;-81
2022/12/03 02:32:52;;;;;;;10.38;5.63;;;102.40;2227.20;;;;;;5008429;28;20029;-82
2022/12/03 02:35:23;;;;;;;11.77;5.93;;;102.40;2227.20;;;;;;5004035;28;20118;-80
2022/12/03 02:37:57;;;;;;;15.70;7.32;;;102.40;2227.20;;;;;;5014398;28;20032;-82
2022/12/03 02:40:27;;;;;;;13.15;6.25;;;102.50;2227.20;;;;;;5006028;28;20501;-81
2022/12/03 02:42:56;;;;;;;10.32;6.15;;;102.50;2227.20;;;;;;5027296;28;20060;-82
2022/12/03 02:45:37;;;;;;;14.43;6.88;;;102.80;2227.20;;;;;;5004776;28;20025;-78
2022/12/03 02:48:08;;;;;;;13.60;6.13;;;102.70;2227.20;;;;;;5001281;28;20065;-78
2022/12/03 02:50:40;;;;;;;11.77;5.80;;;102.60;2227.20;;;;;;5006074;28;20355;-79
2022/12/03 02:53:12;;;;;;;15.63;6.40;;;102.50;2227.20;;;;;;5007850;28;20081;-78
2022/12/03 02:55:39;;;;;;;9.88;5.05;;;102.50;2227.20;;;;;;5022364;28;20025;-81
2022/12/03 02:58:06;;;;;;;9.07;5.05;;;102.40;2227.20;;;;;;5007283;28;20063;-81
2022/12/03 03:00:33;;;;;;;12.77;5.50;;;102.40;2227.20;;;;;;5012729;28;20017;-81
2022/12/03 03:03:00;;;;;;;9.77;5.10;;;102.40;2227.20;;;;;;5009259;28;20159;-81
2022/12/03 03:05:26;;;;;;;10.40;5.30;;;102.40;2227.20;;;;;;5027102;28;20506;-80
2022/12/03 03:07:52;;;;;;;;;;;102.40;2227.20;;;;;;5020868;28;20478;-78
2022/12/03 03:10:21;;;;;;;14.48;7.53;;;102.50;2227.20;;;;;;5022548;28;19905;-78
2022/12/03 03:12:48;;;;;;;11.18;6.13;;;102.50;2227.20;;;;;;5018995;28;20044;-78
2022/12/03 03:15:14;;;;;;;16.52;8.50;;;102.50;2227.20;;;;;;5002664;28;20076;-77
2022/12/03 03:17:41;;;;;;;14.43;6.80;;;102.50;2227.20;;;;;;5025550;28;20481;-81
2022/12/03 03:20:08;;;;;;;17.83;7.40;;;102.50;2227.20;;;;;;5004123;28;20636;-78
2022/12/03 03:22:40;;;;;;;16.10;6.28;;;102.70;2227.20;;;;;;5020161;28;20025;-80
2022/12/03 03:25:09;;;;;;;14.13;5.82;;;102.60;2227.20;;;;;;5020605;28;21872;-77
2022/12/03 03:27:37;;;;;;;14.30;7.00;;;102.60;2227.20;;;;;;5007710;28;20017;-80
2022/12/03 03:30:03;;;;;;;11.35;6.53;;;102.60;2227.20;;;;;;5009330;28;20029;-81
2022/12/03 03:32:29;;;;;;;13.25;6.60;;;102.50;2227.20;;;;;;5022198;28;20022;-78
2022/12/03 03:34:56;;;;;;;12.65;7.03;;;102.40;2227.20;;;;;;5008407;28;20064;-78
2022/12/03 03:37:22;;;;;;;13.48;6.65;;;77.70;2227.20;;;;;;5008827;28;20108;-82
2022/12/03 03:39:48;;;;;;;12.40;6.70;;;77.70;2227.20;;;;;;5009756;28;20026;-77
2022/12/03 03:42:14;;;;;;;;;;;77.70;2227.20;;;;;;5010434;28;20037;-79
2022/12/03 03:44:40;;;;;;;13.70;6.22;;;102.40;2227.20;;;;;;5023523;28;19905;-78
2022/12/03 03:47:06;;;;;;;;;;;102.50;2227.20;;;;;;5002144;28;20034;-78
2022/12/03 03:49:32;;;;;;;10.25;5.28;;;102.50;2227.20;;;;;;5027076;28;19905;-78
2022/12/03 03:51:58;;;;;;;12.75;6.43;;;77.70;2227.20;;;;;;5025727;28;20038;-78
2022/12/03 03:54:24;;;;;;;;;;;77.70;2227.20;;;;;;5024289;28;20505;-79
2022/12/03 03:56:50;;;;;;;13.95;6.32;;;102.40;2227.20;;;;;;5024159;28;19991;-79
2022/12/03 03:59:16;;;;;;;13.60;6.25;;;102.50;2227.20;;;;;;5004285;28;20022;-79
2022/12/03 04:01:42;;;;;;;;;;;102.80;2227.20;;;;;;5007124;28;20034;-81
2022/12/03 04:04:18;;;;;;;12.13;5.97;;;102.80;2227.20;;;;;;5009087;28;19913;-77
2022/12/03 04:06:44;;;;;;;12.35;6.25;;;102.70;2227.20;;;;;;5008792;28;20481;-78
2022/12/03 04:09:10;;;;;;;12.00;5.93;;;102.70;2227.20;;;;;;5006202;28;20106;-80
2022/12/03 04:14:20;;;;;;;10.93;5.72;;;102.70;2227.20;;;;;;5013123;28;19959;-80
2022/12/03 04:16:45;;;;;;;;;;;102.70;2227.20;;;;;;5004057;28;20025;-81
2022/12/03 04:19:11;;;;;;;14.68;6.03;;;102.80;2227.20;;;;;;5019678;28;19996;-81
2022/12/03 04:24:21;;;;;;;11.65;5.78;;;102.80;2227.20;;;;;;5021266;28;19948;-81
2022/12/03 04:29:31;;;;;;;12.80;5.97;;;102.70;2227.20;;;;;;5021296;28;20258;-82
2022/12/03 04:37:25;;;;;;;13.38;5.70;;;102.80;2227.20;;;;;;5025951;28;20036;-80
2022/12/03 04:39:50;;;;;;;;;;;102.90;2227.20;;;;;;5021476;28;20104;-81
2022/12/03 04:42:16;;;;;;;12.20;6.20;;;102.70;2227.20;;;;;;5027257;28;19971;-82
2022/12/03 04:44:42;;;;;;;;;;;102.60;2227.20;;;;;;5019745;28;20075;-82
2022/12/03 04:47:14;;;;;;;12.75;5.32;;;102.50;2227.20;;;;;;5009490;28;19909;-81
2022/12/03 04:49:43;;;;;;;13.55;6.38;;;102.40;2227.20;;;;;;5005839;28;20550;-81
2022/12/03 04:52:11;;;;;;;17.42;6.60;;;102.50;2227.20;;;;;;5016710;28;20072;-80
2022/12/03 04:54:37;;;;;;;10.93;6.50;;;102.70;2227.20;;;;;;5018142;28;20475;-81
2022/12/03 04:57:03;;;;;;;;;;;102.70;2227.20;;;;;;5029272;28;20030;-82
2022/12/03 04:59:29;;;;;;;14.10;5.90;;;102.70;2227.20;;;;;;5000203;28;19945;-81
2022/12/03 05:01:55;;;;;;;;;;;102.80;2227.20;;;;;;5010741;28;20060;-78
2022/12/03 05:04:20;;;;;;;13.98;6.25;;;102.80;2227.20;;;;;;5002787;28;19910;-79
2022/12/03 05:06:46;;;;;;;;;;;102.60;2227.20;;;;;;5005696;28;20436;-81
2022/12/03 05:09:12;;;;;;;17.40;7.70;;;102.40;2227.20;;;;;;5016703;28;19913;-78
2022/12/03 05:11:38;;;;;;;;;;;77.60;2227.20;;;;;;5009576;28;20017;-81
2022/12/03 05:14:04;;;;;;;12.70;6.00;;;77.50;2227.20;;;;;;5026691;28;19963;-81
2022/12/03 05:16:29;;;;;;;16.00;6.18;;;77.50;2227.20;;;;;;5006558;28;20025;-81
2022/12/03 05:18:55;;;;;;;;;;;77.50;2227.20;;;;;;5006866;28;20017;-81
2022/12/03 05:21:21;;;;;;;10.55;6.15;;;77.60;2227.20;;;;;;4998271;28;20008;-81
2022/12/03 05:23:47;;;;;;;;;;;77.50;2227.20;;;;;;5009862;28;20359;-82
2022/12/03 05:26:13;;;;;;;13.50;5.88;;;77.40;2227.20;;;;;;5026716;28;19912;-80
2022/12/03 05:28:38;;;;;;;;;;;77.40;2227.20;;;;;;5020741;28;20053;-82
2022/12/03 05:31:04;;;;;;;12.00;6.30;;;77.30;2227.20;;;;;;5024017;28;19904;-81
2022/12/03 05:33:30;;;;;;;;;;;77.20;2227.20;;;;;;5009474;28;20025;-79
2022/12/03 05:35:56;;;;;;;17.15;6.05;;;77.30;2227.20;;;;;;5008702;28;19913;-81
2022/12/03 05:38:22;;;;;;;;;;;77.50;2227.20;;;;;;5009320;28;20021;-81
2022/12/03 05:40:48;;;;;;;15.55;6.43;;;77.40;2227.20;;;;;;5010885;28;19932;-81
2022/12/03 05:43:14;;;;;;;;;;;77.30;2227.20;;;;;;5012534;28;20485;-80
2022/12/03 05:45:41;;;;;;;12.25;6.35;;;77.20;2227.20;;;;;;5008284;28;19912;-81
2022/12/03 05:48:10;;;;;;;11.80;6.35;;;77.20;2227.20;;;;;;5022994;28;20030;-79
2022/12/03 05:50:37;;;;;;;13.82;8.13;;;77.20;2227.20;;;;;;5004399;28;20017;-80
2022/12/03 05:53:03;;;;;;;14.88;6.57;;;77.30;2227.20;;;;;;5010064;28;20050;-81
2022/12/03 05:55:29;;;;;;;13.50;7.18;;;77.50;2227.20;;;;;;5012589;28;20110;-82
2022/12/03 05:57:55;;;;;;;13.48;6.43;;;77.50;2227.20;;;;;;5025180;28;20112;-78
2022/12/03 06:00:22;;;;;;;;;;;77.50;2227.20;;;;;;5014240;28;20025;-80
2022/12/03 06:02:48;;;;;;;12.38;6.68;;;77.50;2227.20;;;;;;5005546;28;19925;-82
2022/12/03 06:05:14;;;;;;;;;;;77.50;2227.20;;;;;;5003499;28;20030;-77
2022/12/03 06:07:41;;;;;;;14.75;6.53;;;77.40;2227.20;;;;;;5030039;28;19905;-81
2022/12/03 06:10:09;;;;;;;17.60;7.70;;;77.40;2227.20;;;;;;5026710;28;20133;-81
2022/12/03 06:12:35;;;;;;;12.18;6.65;;;77.30;2227.20;;;;;;5005876;28;20018;-81
2022/12/03 06:15:00;;;;;;;;;;;77.30;2227.20;;;;;;5009713;28;20026;-82
2022/12/03 06:17:26;;;;;;;11.55;6.57;;;77.40;2227.20;;;;;;5009132;28;20281;-80
2022/12/03 06:19:52;;;;;;;;;;;77.60;2227.20;;;;;;5009291;28;20017;-81
2022/12/03 06:22:18;;;;;;;13.65;7.32;;;77.70;2227.20;;;;;;5022921;28;19913;-83
2022/12/03 06:24:44;;;;;;;15.73;6.57;;;77.70;2227.20;;;;;;5010693;28;20075;-81
2022/12/03 06:27:10;;;;;;;12.93;6.10;;;102.50;2227.20;;;;;;5003271;28;20030;-79
2022/12/03 06:29:36;;;;;;;;;;;102.60;2227.20;;;;;;5005977;28;20029;-81
2022/12/03 06:32:03;;;;;;;15.68;6.82;;;102.60;2227.20;;;;;;5003807;28;19909;-82
2022/12/03 06:34:29;;;;;;;16.13;7.70;;;102.60;2227.20;;;;;;5011294;28;20033;-81
2022/12/03 06:36:54;;;;;;;;;;;102.50;2227.20;;;;;;5014604;28;20017;-81
2022/12/03 06:39:21;;;;;;;14.50;7.25;;;102.40;2227.20;;;;;;5026153;28;20342;-81
2022/12/03 06:41:47;;;;;;;15.80;6.47;;;77.70;2227.20;;;;;;5011972;28;20036;-78
2022/12/03 06:44:13;;;;;;;;;;;102.50;2227.20;;;;;;5025644;28;20021;-78
2022/12/03 06:46:38;;;;;;;18.48;7.80;;;102.40;2227.20;;;;;;5026659;28;19951;-80
2022/12/03 06:49:04;;;;;;;;;;;102.40;2227.20;;;;;;5012016;28;20041;-78
2022/12/03 06:51:30;;;;;;;16.70;7.80;;;77.70;2227.20;;;;;;5019731;28;20000;-82
2022/12/03 06:53:56;;;;;;;18.45;7.75;;;77.70;2227.20;;;;;;5024713;28;20042;-79
2022/12/03 06:56:21;;;;;;;;;;;102.40;2227.20;;;;;;5007523;28;20025;-80
2022/12/03 06:58:47;;;;;;;16.50;7.55;;;102.40;2227.20;;;;;;5026132;28;19944;-80
2022/12/03 07:01:12;;;;;;;;;;;102.40;2227.20;;;;;;5002713;28;20130;-78
2022/12/03 07:03:38;;;;;;;21.05;7.47;;;102.40;2227.20;;;;;;5027081;28;19909;-78
2022/12/03 07:06:04;;;;;;;;;;;102.40;2227.20;;;;;;5026237;28;21170;-78
2022/12/03 07:08:29;;;;;;;15.75;8.75;;;102.40;2227.20;;;;;;5019206;28;19909;-76
2022/12/03 07:10:55;;;;;;;;;;;102.60;2227.20;;;;;;5010652;28;20014;-79
2022/12/03 07:13:21;;;;;;;16.98;7.93;;;102.70;2227.20;;;;;;5025691;28;19996;-79
2022/12/03 07:15:46;;;;;;;;;;;102.80;2227.20;;;;;;5023421;28;20022;-81
2022/12/03 07:18:12;;;;;;;17.08;7.43;;;102.90;2227.20;;;;;;5022137;28;19906;-80
2022/12/03 07:20:38;;;;;;;;;;;103.00;2227.20;;;;;;5022942;28;20026;-77
2022/12/03 07:23:03;;;;;;;19.65;7.97;;;103.00;2227.20;;;;;;5020494;28;19915;-76
2022/12/03 07:25:29;;;;;;;;;;;103.00;2227.20;;;;;;5004492;28;20125;-81
2022/12/03 07:27:55;;;;;;;14.40;7.10;;;102.90;2227.20;;;;;;5015461;28;20238;-84
2022/12/03 07:30:22;;;;;;;;;;;102.90;2227.20;;;;;;5024269;28;20056;-81
2022/12/03 07:32:48;;;;;;;12.15;6.03;;;103.00;2227.20;;;;;;5003765;28;19917;-78
2022/12/03 07:35:14;;;;;;;;;;;102.90;2227.20;;;;;;5009668;28;20224;-78
2022/12/03 07:37:40;;;;;;;14.32;7.57;;;103.00;2227.20;;;;;;5007923;28;19959;-79
2022/12/03 07:40:06;;;;;;;;;;;103.00;2227.20;;;;;;5007851;28;20544;-82
2022/12/03 07:42:31;;;;;;;15.23;7.63;;;102.90;2227.20;;;;;;5001539;28;19940;-79
2022/12/03 07:44:57;;;;;;;;;;;103.00;2227.20;;;;;;5001842;28;20018;-78
2022/12/03 07:47:23;;;;;;;20.88;8.90;;;103.10;2227.20;;;;;;5019835;28;20364;-79
2022/12/03 07:49:48;;;;;;;;;;;103.10;2227.20;;;;;;5008323;28;20141;-79
2022/12/03 07:52:14;;;;;;;24.65;7.68;;;103.20;2227.20;;;;;;5003679;28;19960;-79
2022/12/03 07:54:40;;;;;;;;;;;103.20;2227.20;;;;;;5013663;28;20036;-77
2022/12/03 07:57:06;;;;;;;14.15;7.35;;;103.30;2227.20;;;;;;5010033;28;19912;-80
2022/12/03 07:59:31;;;;;;;;;;;128.30;2252.80;;;;;;5010130;28;20123;-79
2022/12/03 08:01:57;;;;;;;15.00;6.82;;;128.00;2252.80;;;;;;5014818;28;20404;-79
2022/12/03 08:04:22;;;;;;;;;;;128.10;2252.80;;;;;;5027494;28;20030;-78
2022/12/03 08:06:48;;;;;;;13.75;6.50;;;128.10;2252.80;;;;;;5025541;28;19928;-78
2022/12/03 08:09:14;;;;;;;;;;;128.10;2252.80;;;;;;5015033;28;20037;-79
2022/12/03 08:11:40;;;;;;;19.88;7.40;;;128.20;2252.80;;;;;;5032259;28;19905;-79
2022/12/03 08:14:17;;;;;;;13.80;7.57;;;128.10;2252.80;;;;;;5015375;28;20029;-79
2022/12/03 08:16:45;;;;;;;17.55;7.60;;;128.20;2252.80;;;;;;5022949;28;20030;-78
2022/12/03 08:19:13;;;;;;;16.48;8.13;;;128.30;2252.80;;;;;;5011499;28;20493;-79
2022/12/03 08:21:39;;;;;;;14.27;7.80;;;128.40;2252.80;;;;;;5014529;28;20140;-77
2022/12/03 08:24:11;;;;;;;;;;;128.30;2252.80;;;;;;5033115;28;20025;-78
2022/12/03 08:26:37;;;;;;;13.90;6.97;;;128.50;2252.80;;;;;;5015093;28;19955;-78
2022/12/03 08:29:07;;;;;;;;;;;128.60;2252.80;;;;;;5031697;28;20021;-78
2022/12/03 08:31:33;;;;;;;14.50;6.93;;;128.60;2252.80;;;;;;5031407;28;19909;-79
2022/12/03 08:34:10;;;;;;;;;;;128.70;2252.80;;;;;;5023060;28;20600;-83
2022/12/03 08:36:35;;;;;;;16.20;7.15;;;128.90;2252.80;;;;;;5017722;28;19916;-78
2022/12/03 08:39:13;;;;;;;;;;;128.90;2252.80;;;;;;5015397;28;20022;-81
2022/12/03 08:44:26;;;;;;;12.73;6.65;;;153.80;2252.80;;;;;;5017298;28;20041;-82
2022/12/03 08:47:07;;;;;;;12.50;6.43;;;153.90;2252.80;;;;;;5003943;28;20017;-83
2022/12/03 08:49:33;;;;;;;16.42;7.03;;;153.90;2252.80;;;;;;5026915;28;20034;-78
2022/12/03 08:52:08;;;;;;;13.90;7.43;;;154.10;2252.80;;;;;;5014857;28;20481;-78
2022/12/03 08:54:34;;;;;;;14.73;7.55;;;154.20;2252.80;;;;;;5028536;28;20092;-77
2022/12/03 08:57:00;;;;;;;;;;;154.30;2252.80;;;;;;5003036;28;20034;-78
2022/12/03 08:59:31;;;;;;;11.13;5.88;;;154.40;2252.80;;;;;;5021383;28;19905;-77
2022/12/03 09:01:58;;;;;;;12.68;7.32;;;154.40;2252.80;;;;;;5026302;28;20037;-77
2022/12/03 09:04:37;;;;;;;12.35;6.30;;;179.20;2252.80;;;;;;5026369;28;20057;-79
2022/12/03 09:07:03;;;;;;;13.82;6.72;;;179.40;2252.80;;;;;;5014700;28;20026;-78
2022/12/03 09:09:29;;;;;;;;;;;179.50;2252.80;;;;;;5013050;28;20056;-80
2022/12/03 09:11:55;;;;;;;14.02;7.43;;;179.70;2252.80;;;;;;5018366;28;19909;-78
2022/12/03 09:14:21;;;;;;;11.55;7.07;;;179.80;2252.80;;;;;;5036480;28;20030;-83
2022/12/03 09:17:08;;;;;;;10.45;6.47;;;180.00;2252.80;;;;;;5018716;28;20045;-81
2022/12/03 09:19:33;;;;;;;12.57;7.47;;;180.10;2252.80;;;;;;5017579;28;20124;-84
2022/12/03 09:21:59;;;;;;;;;;;204.80;2252.80;;;;;;5018033;28;20145;-79
2022/12/03 09:24:25;;;;;;;13.00;6.00;;;204.90;2252.80;;;;;;5018680;28;19934;-80
2022/12/03 09:26:50;;;;;;;;;;;205.10;2252.80;;;;;;5020567;28;20022;-78
2022/12/03 09:29:16;;;;;;;12.90;6.22;;;205.20;2252.80;;;;;;5015440;28;19952;-79
2022/12/03 09:31:41;;;;;;;;;;;205.20;2252.80;;;;;;5015616;28;20034;-78
2022/12/03 09:34:07;;;;;;;13.65;6.45;;;205.30;2252.80;;;;;;5018285;28;19913;-81
2022/12/03 09:36:33;;;;;;;9.52;5.45;;;205.40;2252.80;;;;;;5018671;28;20022;-84
2022/12/03 09:38:59;;;;;;;;;;;205.50;2252.80;;;;;;4998991;28;20032;-82
2022/12/03 09:41:25;;;;;;;13.77;6.93;;;205.60;2252.80;;;;;;5020561;28;19917;-79
2022/12/03 09:43:52;;;;;;;12.10;7.25;;;205.70;2252.80;;;;;;5023143;28;20359;-82
2022/12/03 09:46:21;;;;;;;17.50;8.15;;;230.40;2252.80;;;;;;5016105;28;20022;-82
2022/12/03 09:48:47;;;;;;;17.75;9.90;;;230.50;2252.80;;;;;;5015000;28;20032;-79
2022/12/03 09:51:13;;;;;;;15.40;7.82;;;230.70;2252.80;;;;;;5013678;28;20064;-80
2022/12/03 09:53:40;;;;;;;13.45;7.47;;;230.70;2252.80;;;;;;5015930;28;20037;-83
2022/12/03 09:56:13;;;;;;;12.35;6.88;;;230.80;2252.80;;;;;;5032683;28;20394;-80
2022/12/03 09:58:41;;;;;;;12.48;6.55;;;230.90;2252.80;;;;;;5013322;28;20017;-79
2022/12/03 10:01:13;;;;;;;19.85;9.63;;;230.90;2252.80;;;;;;5010256;28;20112;-80
2022/12/03 10:03:46;;;;;;;16.67;8.38;;;231.10;2252.80;;;;;;5003236;28;20091;-79
2022/12/03 10:06:18;;;;;;;17.45;9.15;;;231.20;2252.80;;;;;;5016738;28;20057;-80
2022/12/03 10:08:49;;;;;;;13.10;7.10;;;231.20;2252.80;;;;;;5033860;28;20390;-79
2022/12/03 10:11:16;;;;;;;18.63;8.13;;;231.00;2252.80;;;;;;5034138;28;20104;-80
2022/12/03 10:13:43;;;;;;;13.18;7.40;;;231.00;2252.80;;;;;;5016608;28;20022;-83
2022/12/03 10:16:11;;;;;;;14.25;8.63;;;230.90;2252.80;;;;;;5016696;28;20025;-86
2022/12/03 10:18:42;;;;;;;15.18;8.60;;;230.90;2252.80;;;;;;5016771;28;20032;-82
2022/12/03 10:21:28;;;;;;;16.90;9.30;;;231.10;2252.80;;;;;;5032917;28;20037;-85
2022/12/03 10:24:15;;;;;;;15.02;7.13;;;231.30;2252.80;;;;;;5019085;28;20017;-82
2022/12/03 10:26:43;;;;;;;13.90;7.88;;;256.10;2252.80;;;;;;5034384;28;20470;-83
2022/12/03 10:29:30;;;;;;;12.95;7.80;;;256.10;2252.80;;;;;;5016672;28;20026;-88
2022/12/03 10:32:00;;;;;;;14.75;6.88;;;256.30;2252.80;;;;;;5013715;28;20656;-82
2022/12/03 10:34:33;;;;;;;13.48;8.18;;;256.10;2252.80;;;;;;5014461;28;20030;-83
2022/12/03 10:37:14;;;;;;;16.67;7.75;;;256.20;2252.80;;;;;;5015209;28;20030;-83
2022/12/03 10:40:10;;;;;;;13.48;7.20;;;256.50;2252.80;;;;;;5016272;28;20025;-87
2022/12/03 10:42:39;;;;;;;10.70;6.13;;;256.50;2252.80;;;;;;5027020;28;20091;-81
2022/12/03 10:45:22;;;;;;;13.27;7.40;;;256.70;2252.80;;;;;;5004176;28;20018;-82
2022/12/03 10:48:15;;;;;;;14.05;7.35;;;256.50;2252.80;;;;;;5019946;28;20095;-80
2022/12/03 10:50:49;;;;;;;11.23;6.15;;;256.50;2252.80;;;;;;5016240;28;20032;-86
2022/12/03 10:53:15;;;;;;;12.48;6.40;;;256.50;2252.80;;;;;;4151866;28;24340400;-82
2022/12/03 10:55:42;;;;;;;11.45;6.25;;;256.70;2252.80;;;;;;4938345;29;20055;-82
2022/12/03 10:58:19;;;;;;;16.42;7.35;;;281.60;2278.40;;;;;;4938593;29;20019;-83
2022/12/03 11:00:45;;;;;;;16.50;6.80;;;256.90;2252.80;;;;;;4954839;29;20135;-84
2022/12/03 11:03:25;;;;;;;9.65;5.50;;;281.60;2278.40;;;;;;4938891;29;20034;-87
2022/12/03 11:05:53;;;;;;;11.45;6.35;;;256.90;2252.80;;;;;;4938254;29;20086;-79
2022/12/03 11:08:25;;;;;;;11.70;6.25;;;281.60;2278.40;;;;;;4937862;29;20384;-77
2022/12/03 11:11:06;;;;;;;10.60;5.60;;;281.60;2278.40;;;;;;4937838;28;20027;-78
2022/12/03 11:13:32;;;;;;;11.02;6.53;;;281.60;2278.40;;;;;;4953641;28;20023;-78
2022/12/03 11:15:59;;;;;;;14.68;7.55;;;256.80;2252.80;;;;;;4938188;29;20508;-79
2022/12/03 11:18:48;;;;;;;11.77;6.47;;;256.90;2252.80;;;;;;4937686;29;20051;-81
2022/12/03 11:21:14;;;;;;;7.53;5.22;;;256.70;2252.80;;;;;;4896885;29;20056;-82
2022/12/03 11:23:45;;;;;;;11.88;6.88;;;256.80;2252.80;;;;;;4880589;29;20036;-86
2022/12/03 11:26:12;;;;;;;11.02;6.97;;;256.80;2252.80;;;;;;4896800;29;20037;-80
2022/12/03 11:28:59;;;;;;;10.60;5.85;;;256.90;2252.80;;;;;;4897226;29;20134;-82
2022/12/03 11:31:41;;;;;;;9.07;5.90;;;256.80;2252.80;;;;;;4902323;29;20040;-84
2022/12/03 11:34:19;;;;;;;44.60;21.95;;;256.80;2252.80;;;;;;4934568;29;20492;-82
2022/12/03 11:37:09;;;;;;;22.00;10.68;;;256.50;2252.80;;;;;;4934944;29;20040;-82
2022/12/03 11:39:59;;;;;;;12.07;5.90;;;256.50;2252.80;;;;;;4934519;29;20039;-81
2022/12/03 11:42:35;;;;;;;23.25;11.50;;;256.60;2252.80;;;;;;4919625;29;20059;-79
2022/12/03 11:45:09;;;;;;;10.25;5.93;;;256.60;2252.80;;;;;;4910075;29;20034;-80
2022/12/03 11:48:04;;;;;;;14.73;8.75;;;256.60;2252.80;;;;;;4933860;29;20563;-76
2022/12/03 11:50:38;;;;;;;9.18;5.50;;;256.50;2252.80;;;;;;4933835;29;20027;-78
2022/12/03 11:53:09;;;;;;;8.13;5.03;;;256.50;2252.80;;;;;;4921715;29;20047;-80
2022/12/03 11:55:37;;;;;;;10.02;5.45;;;256.50;2252.80;;;;;;4932957;29;20508;-79
2022/12/03 11:58:19;;;;;;;10.43;5.53;;;256.50;2252.80;;;;;;4968292;28;20080;-80
2022/12/03 12:00:57;;;;;;;11.00;5.85;;;256.40;2252.80;;;;;;4995503;28;20030;-79
2022/12/03 12:03:30;;;;;;;9.52;6.38;;;256.30;2252.80;;;;;;5013096;28;20029;-81
2022/12/03 12:06:01;;;;;;;6.82;4.35;;;256.40;2252.80;;;;;;5013513;28;20026;-79
2022/12/03 12:08:26;;;;;;;11.05;5.55;;;256.40;2252.80;;;;;;5029573;28;20109;-79
2022/12/03 12:10:52;;;;;;;11.02;5.68;;;256.40;2252.80;;;;;;5023165;28;20101;-79
2022/12/03 12:13:29;;;;;;;8.80;4.90;;;256.50;2252.80;;;;;;5012127;28;20112;-81
2022/12/03 12:15:56;;;;;;;8.32;5.03;;;256.40;2252.80;;;;;;5012531;28;20021;-81
2022/12/03 12:18:37;;;;;;;8.70;4.88;;;256.40;2252.80;;;;;;5012302;28;20021;-80
2022/12/03 12:21:37;;;;;;;9.80;6.28;;;256.30;2252.80;;;;;;5012141;28;20026;-81
2022/12/03 12:24:30;;;;;;;11.93;6.68;;;256.30;2252.80;;;;;;5026467;28;20030;-78
2022/12/03 12:26:57;;;;;;;10.85;6.22;;;256.30;2252.80;;;;;;5012952;28;20018;-79
2022/12/03 12:29:23;;;;;;;9.40;5.30;;;256.30;2252.80;;;;;;5011475;28;20025;-78
2022/12/03 12:31:49;;;;;;;12.00;6.65;;;256.40;2252.80;;;;;;5009911;28;20022;-80
2022/12/03 12:34:14;;;;;;;;;;;256.50;2252.80;;;;;;5012656;28;20061;-83
2022/12/03 12:36:40;;;;;;;8.32;4.57;;;256.30;2252.80;;;;;;5015605;28;19909;-82
2022/12/03 12:39:14;;;;;;;8.20;4.60;;;256.20;2252.80;;;;;;5014471;28;20512;-78
2022/12/03 12:41:41;;;;;;;13.52;6.45;;;256.10;2252.80;;;;;;5002729;28;20045;-79
2022/12/03 12:44:12;;;;;;;8.93;5.45;;;256.20;2252.80;;;;;;5001642;28;20029;-80
2022/12/03 12:46:38;;;;;;;10.85;5.43;;;256.10;2252.80;;;;;;5001702;28;20025;-80
2022/12/03 12:49:11;;;;;;;10.13;5.95;;;256.10;2252.80;;;;;;5022448;28;20116;-78
2022/12/03 12:51:43;;;;;;;11.27;5.55;;;231.30;2252.80;;;;;;5027249;28;20018;-80
2022/12/03 12:54:11;;;;;;;11.80;6.38;;;231.30;2252.80;;;;;;5012709;28;20506;-80
2022/12/03 12:56:39;;;;;;;10.63;6.28;;;231.30;2252.80;;;;;;5013830;28;20026;-79